createdAt,value
2022-10-19T00:00:32.598Z,73.60
2022-10-19T00:01:36.742Z,73.62
2022-10-19T00:02:38.397Z,73.55
2022-10-19T00:03:40.217Z,73.52
2022-10-19T00:04:41.846Z,73.61
2022-10-19T00:05:43.404Z,73.83
2022-10-19T00:06:45.242Z,73.95
2022-10-19T00:07:46.822Z,73.96
2022-10-19T00:08:48.422Z,73.89
2022-10-19T00:09:50.099Z,74.01
2022-10-19T00:10:51.658Z,73.90
2022-10-19T00:11:53.268Z,73.87
2022-10-19T00:12:54.816Z,74.01
2022-10-19T00:13:56.704Z,74.03
2022-10-19T00:14:58.272Z,74.16
2022-10-19T00:15:59.888Z,74.07
2022-10-19T00:17:01.505Z,74.23
2022-10-19T00:18:03.039Z,74.35
2022-10-19T00:19:07.196Z,74.51
2022-10-19T00:20:09.508Z,74.68
2022-10-19T00:21:13.257Z,74.62
2022-10-19T00:22:14.961Z,74.73
2022-10-19T00:23:16.527Z,74.66
2022-10-19T00:24:18.215Z,74.67
2022-10-19T00:25:19.793Z,74.82
2022-10-19T00:26:21.415Z,74.54
2022-10-19T00:27:22.957Z,74.44
2022-10-19T00:28:24.580Z,74.34
2022-10-19T00:29:26.143Z,74.61
2022-10-19T00:30:27.690Z,74.36
2022-10-19T00:31:29.332Z,74.25
2022-10-19T00:32:31.161Z,74.37
2022-10-19T00:33:33.418Z,74.40
2022-10-19T00:34:35.055Z,74.29
2022-10-19T00:35:40.498Z,74.15
2022-10-19T00:36:42.068Z,74.26
2022-10-19T00:37:43.670Z,74.12
2022-10-19T00:38:45.486Z,74.12
2022-10-19T00:39:47.165Z,74.21
2022-10-19T00:40:48.811Z,74.09
2022-10-19T00:41:50.453Z,73.98
2022-10-19T00:42:55.940Z,73.88
2022-10-19T00:44:01.824Z,73.81
2022-10-19T00:45:16.150Z,73.84
2022-10-19T00:46:17.691Z,73.76
2022-10-19T00:47:19.391Z,73.74
2022-10-19T00:48:30.850Z,73.70
2022-10-19T00:49:34.507Z,73.50
2022-10-19T00:50:36.166Z,73.65
2022-10-19T00:51:39.745Z,73.70
2022-10-19T00:52:41.400Z,73.67
2022-10-19T00:53:43.020Z,73.37
2022-10-19T00:54:45.734Z,73.85
2022-10-19T00:55:47.322Z,73.63
2022-10-19T00:56:50.031Z,73.44
2022-10-19T00:58:58.220Z,73.24
2022-10-19T00:59:59.793Z,73.19
2022-10-19T01:01:02.059Z,72.82
2022-10-19T01:02:04.473Z,73.69
2022-10-19T01:03:06.032Z,74.38
2022-10-19T01:04:07.652Z,73.78
2022-10-19T01:05:09.373Z,73.46
2022-10-19T01:06:12.212Z,72.74
2022-10-19T01:07:14.049Z,72.79
2022-10-19T01:08:15.666Z,72.51
2022-10-19T01:09:17.237Z,72.54
2022-10-19T01:10:18.774Z,72.45
2022-10-19T01:11:39.315Z,73.08
2022-10-19T01:12:51.718Z,72.56
2022-10-19T01:14:15.168Z,72.56
2022-10-19T01:15:22.375Z,72.31
2022-10-19T01:17:02.838Z,71.85
2022-10-19T01:18:26.778Z,71.71
2022-10-19T01:19:35.808Z,71.39
2022-10-19T01:21:34.391Z,71.22
2022-10-19T01:23:10.301Z,71.12
2022-10-19T01:24:14.457Z,71.22
2022-10-19T01:25:24.963Z,70.83
2022-10-19T01:26:53.445Z,70.84
2022-10-19T01:28:19.471Z,70.87
2022-10-19T01:29:37.052Z,71.51
2022-10-19T01:31:01.990Z,71.51
2022-10-19T01:32:06.706Z,71.30
2022-10-19T01:33:17.034Z,72.37
2022-10-19T01:34:42.857Z,71.83
2022-10-19T01:36:01.255Z,72.25
2022-10-19T01:37:07.397Z,71.64
2022-10-19T01:38:17.900Z,72.29
2022-10-19T01:39:32.447Z,71.87
2022-10-19T01:40:42.640Z,72.88
2022-10-19T01:42:03.525Z,72.14
2022-10-19T01:43:11.585Z,73.39
2022-10-19T01:44:39.225Z,72.56
2022-10-19T01:45:52.703Z,73.52
2022-10-19T01:46:58.737Z,73.33
2022-10-19T01:48:11.215Z,73.56
2022-10-19T01:49:39.451Z,73.45
2022-10-19T01:50:48.105Z,73.39
2022-10-19T01:51:51.970Z,73.79
2022-10-19T01:52:53.713Z,74.06
2022-10-19T01:53:57.110Z,73.70
2022-10-19T01:54:59.064Z,73.70
2022-10-19T01:56:00.602Z,73.88
2022-10-19T01:57:02.343Z,73.93
2022-10-19T01:58:08.378Z,74.60
2022-10-19T01:59:11.353Z,74.45
2022-10-19T02:00:13.399Z,74.55
2022-10-19T02:01:15.911Z,74.37
2022-10-19T02:02:17.539Z,74.53
2022-10-19T02:03:19.133Z,74.67
2022-10-19T02:04:21.929Z,74.69
2022-10-19T02:05:27.074Z,74.71
2022-10-19T02:06:28.805Z,74.57
2022-10-19T02:07:30.340Z,74.59
2022-10-19T02:08:44.382Z,74.94
2022-10-19T02:09:46.004Z,74.98
2022-10-19T02:10:47.547Z,74.96
2022-10-19T02:11:57.248Z,75.20
2022-10-19T02:12:59.072Z,75.14
2022-10-19T02:14:04.326Z,75.12
2022-10-19T02:15:09.958Z,74.91
2022-10-19T02:16:19.500Z,74.71
2022-10-19T02:17:23.456Z,74.68
2022-10-19T02:18:31.588Z,74.55
2022-10-19T02:19:33.206Z,74.55
2022-10-19T02:20:35.473Z,74.68
2022-10-19T02:21:37.069Z,74.81
2022-10-19T02:22:38.637Z,74.63
2022-10-19T02:23:40.208Z,74.57
2022-10-19T02:24:41.819Z,74.49
2022-10-19T02:25:43.380Z,74.64
2022-10-19T02:26:44.955Z,74.65
2022-10-19T02:27:46.514Z,74.66
2022-10-19T02:28:48.125Z,74.89
2022-10-19T02:29:49.689Z,74.95
2022-10-19T02:30:51.321Z,75.46
2022-10-19T02:31:52.964Z,75.48
2022-10-19T02:32:54.524Z,75.62
2022-10-19T02:33:56.118Z,75.60
2022-10-19T02:34:58.243Z,75.65
2022-10-19T02:35:59.811Z,75.35
2022-10-19T02:37:01.375Z,75.10
2022-10-19T02:38:02.954Z,74.02
2022-10-19T02:39:04.623Z,73.17
2022-10-19T02:40:06.716Z,72.55
2022-10-19T02:41:15.669Z,72.93
2022-10-19T02:42:24.649Z,73.04
2022-10-19T02:43:26.209Z,73.10
2022-10-19T02:44:48.389Z,73.96
2022-10-19T02:46:01.882Z,76.52
2022-10-19T02:47:25.751Z,76.85
2022-10-19T02:48:27.788Z,77.19
2022-10-19T02:49:29.730Z,77.27
2022-10-19T02:50:31.277Z,77.41
2022-10-19T02:51:40.472Z,77.30
2022-10-19T02:52:42.158Z,77.42
2022-10-19T02:53:43.679Z,77.29
2022-10-19T02:54:45.315Z,77.20
2022-10-19T02:55:48.417Z,76.95
2022-10-19T02:56:50.046Z,76.97
2022-10-19T02:57:51.709Z,76.69
2022-10-19T02:58:53.317Z,76.47
2022-10-19T02:59:54.880Z,76.02
2022-10-19T03:00:56.477Z,75.96
2022-10-19T03:01:58.107Z,75.81
2022-10-19T03:03:00.011Z,75.57
2022-10-19T03:04:01.565Z,75.43
2022-10-19T03:05:03.780Z,75.16
2022-10-19T03:06:05.330Z,74.97
2022-10-19T03:07:07.008Z,74.91
2022-10-19T03:08:08.599Z,75.00
2022-10-19T03:09:10.160Z,74.87
2022-10-19T03:10:11.695Z,74.80
2022-10-19T03:11:13.309Z,74.77
2022-10-19T03:12:14.865Z,74.71
2022-10-19T03:13:16.436Z,74.83
2022-10-19T03:14:17.960Z,74.83
2022-10-19T03:15:19.681Z,75.01
2022-10-19T03:16:21.303Z,75.05
2022-10-19T03:17:22.917Z,75.32
2022-10-19T03:18:24.486Z,75.26
2022-10-19T03:19:26.132Z,75.31
2022-10-19T03:20:28.171Z,75.48
2022-10-19T03:21:29.838Z,75.48
2022-10-19T03:22:31.421Z,75.54
2022-10-19T03:23:33.148Z,75.55
2022-10-19T03:24:34.725Z,75.64
2022-10-19T03:25:36.358Z,75.60
2022-10-19T03:26:37.963Z,75.51
2022-10-19T03:27:39.492Z,75.44
2022-10-19T03:28:41.156Z,75.40
2022-10-19T03:29:42.788Z,75.43
2022-10-19T03:30:44.347Z,75.39
2022-10-19T03:31:45.949Z,75.46
2022-10-19T03:32:47.636Z,75.40
2022-10-19T03:33:50.497Z,75.28
2022-10-19T03:34:52.056Z,75.33
2022-10-19T03:36:19.638Z,75.53
2022-10-19T03:37:21.215Z,75.66
2022-10-19T03:38:22.907Z,75.84
2022-10-19T03:39:24.458Z,76.09
2022-10-19T03:40:25.986Z,76.10
2022-10-19T03:41:30.904Z,76.29
2022-10-19T03:42:32.467Z,76.27
2022-10-19T03:43:34.232Z,76.28
2022-10-19T03:44:35.807Z,76.35
2022-10-19T03:45:37.524Z,76.44
2022-10-19T03:46:39.205Z,76.42
2022-10-19T03:47:40.761Z,76.59
2022-10-19T03:48:42.561Z,76.60
2022-10-19T03:49:44.154Z,76.62
2022-10-19T03:50:45.783Z,76.62
2022-10-19T03:51:47.531Z,76.40
2022-10-19T03:52:49.693Z,76.58
2022-10-19T03:53:55.785Z,76.62
2022-10-19T03:54:57.370Z,76.51
2022-10-19T03:56:03.763Z,76.66
2022-10-19T03:57:05.438Z,76.56
2022-10-19T03:58:06.995Z,76.71
2022-10-19T03:59:08.784Z,76.83
2022-10-19T04:00:10.937Z,77.39
2022-10-19T04:01:23.348Z,77.46
2022-10-19T04:02:25.057Z,77.58
2022-10-19T04:03:26.744Z,77.55
2022-10-19T04:04:28.310Z,77.60
2022-10-19T04:05:29.877Z,77.66
2022-10-19T04:06:33.351Z,77.71
2022-10-19T04:07:35.160Z,77.75
2022-10-19T04:08:37.129Z,78.05
2022-10-19T04:09:39.290Z,78.23
2022-10-19T04:10:40.865Z,78.41
2022-10-19T04:11:42.590Z,78.43
2022-10-19T04:12:44.161Z,78.32
2022-10-19T04:13:48.419Z,78.67
2022-10-19T04:14:57.170Z,78.78
2022-10-19T04:15:59.394Z,78.95
2022-10-19T04:17:02.010Z,79.00
2022-10-19T04:18:03.668Z,79.24
2022-10-19T04:19:05.234Z,79.29
2022-10-19T04:20:07.528Z,79.38
2022-10-19T04:21:32.878Z,79.29
2022-10-19T04:22:34.480Z,79.45
2022-10-19T04:23:36.110Z,79.75
2022-10-19T04:24:37.716Z,80.00
2022-10-19T04:25:39.281Z,80.27
2022-10-19T04:26:43.058Z,80.46
2022-10-19T04:27:46.049Z,80.70
2022-10-19T04:28:47.648Z,80.68
2022-10-19T04:29:49.237Z,80.74
2022-10-19T04:30:50.808Z,80.53
2022-10-19T04:31:52.479Z,80.50
2022-10-19T04:32:54.117Z,80.62
2022-10-19T04:33:56.001Z,80.49
2022-10-19T04:34:57.586Z,80.31
2022-10-19T04:36:04.138Z,80.23
2022-10-19T04:37:05.732Z,80.28
2022-10-19T04:38:07.368Z,80.29
2022-10-19T04:39:09.163Z,80.46
2022-10-19T04:40:14.888Z,80.37
2022-10-19T04:41:18.106Z,80.66
2022-10-19T04:42:19.804Z,80.41
2022-10-19T04:43:21.473Z,80.66
2022-10-19T04:45:25.568Z,80.49
2022-10-19T04:46:27.439Z,80.65
2022-10-19T04:47:29.728Z,80.66
2022-10-19T04:48:31.377Z,80.38
2022-10-19T04:49:32.938Z,80.53
2022-10-19T04:50:34.521Z,80.46
2022-10-19T04:51:36.085Z,80.39
2022-10-19T04:52:37.730Z,80.16
2022-10-19T04:53:40.187Z,80.43
2022-10-19T04:54:41.715Z,80.29
2022-10-19T04:55:43.368Z,80.45
2022-10-19T04:56:44.947Z,80.14
2022-10-19T04:57:46.497Z,80.43
2022-10-19T04:58:48.219Z,80.41
2022-10-19T04:59:49.785Z,80.27
2022-10-19T05:00:51.480Z,80.52
2022-10-19T05:01:53.086Z,80.28
2022-10-19T05:02:54.655Z,80.52
2022-10-19T05:05:03.839Z,81.59
2022-10-19T05:06:05.846Z,81.71
2022-10-19T05:07:07.502Z,81.92
2022-10-19T05:08:09.663Z,82.16
2022-10-19T05:09:11.222Z,82.51
2022-10-19T05:10:12.894Z,82.38
2022-10-19T05:11:14.974Z,83.17
2022-10-19T05:12:16.536Z,83.19
2022-10-19T05:13:18.165Z,83.58
2022-10-19T05:14:19.781Z,83.87
2022-10-19T05:15:21.448Z,83.79
2022-10-19T05:16:23.451Z,83.88
2022-10-19T05:17:25.077Z,83.79
2022-10-19T05:18:26.802Z,83.85
2022-10-19T05:19:28.913Z,83.55
2022-10-19T05:20:30.545Z,83.66
2022-10-19T05:21:32.472Z,83.51
2022-10-19T05:22:34.097Z,83.48
2022-10-19T05:23:35.718Z,83.39
2022-10-19T05:24:37.269Z,83.29
2022-10-19T05:25:38.855Z,83.20
2022-10-19T05:26:40.416Z,83.27
2022-10-19T05:27:42.053Z,83.54
2022-10-19T05:28:47.437Z,83.45
2022-10-19T05:29:49.120Z,83.60
2022-10-19T05:30:50.685Z,83.63
2022-10-19T05:31:52.292Z,83.48
2022-10-19T05:32:53.842Z,83.41
2022-10-19T05:33:58.854Z,83.36
2022-10-19T05:35:00.490Z,83.33
2022-10-19T05:36:12.371Z,83.09
2022-10-19T05:37:14.003Z,82.99
2022-10-19T05:38:15.572Z,82.91
2022-10-19T05:39:17.645Z,82.99
2022-10-19T05:40:19.208Z,82.92
2022-10-19T05:41:21.233Z,82.96
2022-10-19T05:42:22.834Z,82.78
2022-10-19T05:43:24.408Z,82.66
2022-10-19T05:44:25.961Z,82.67
2022-10-19T05:45:27.591Z,82.76
2022-10-19T05:46:29.558Z,82.56
2022-10-19T05:47:31.664Z,82.23
2022-10-19T05:48:34.048Z,81.83
2022-10-19T05:49:35.599Z,81.40
2022-10-19T05:50:37.130Z,80.88
2022-10-19T05:51:38.988Z,80.79
2022-10-19T05:52:40.550Z,80.44
2022-10-19T05:53:42.141Z,80.21
2022-10-19T05:54:43.834Z,79.58
2022-10-19T05:55:45.406Z,78.86
2022-10-19T05:56:47.221Z,78.40
2022-10-19T05:57:48.791Z,78.46
2022-10-19T05:58:50.578Z,78.18
2022-10-19T05:59:52.168Z,78.71
2022-10-19T06:00:54.510Z,79.02
2022-10-19T06:01:56.166Z,78.91
2022-10-19T06:02:59.192Z,79.32
2022-10-19T06:04:01.104Z,79.24
2022-10-19T06:05:02.752Z,79.58
2022-10-19T06:06:05.189Z,80.11
2022-10-19T06:07:06.797Z,80.33
2022-10-19T06:08:08.333Z,80.41
2022-10-19T06:09:10.042Z,81.12
2022-10-19T06:10:11.641Z,81.08
2022-10-19T12:35:25.903Z,52.18
2022-10-19T12:36:45.641Z,51.76
2022-10-19T12:37:54.452Z,51.14
2022-10-19T12:39:25.153Z,51.89
2022-10-19T12:40:36.839Z,52.32
2022-10-19T12:41:52.324Z,50.25
2022-10-19T12:43:40.158Z,49.99
2022-10-19T12:45:13.815Z,50.11
2022-10-19T12:46:44.017Z,48.53
2022-10-19T12:48:07.909Z,49.59
2022-10-19T12:49:31.183Z,49.00
2022-10-19T12:50:51.583Z,49.38
2022-10-19T12:51:54.007Z,49.28
2022-10-19T12:52:55.643Z,48.65
2022-10-19T12:54:07.777Z,48.83
2022-10-19T12:55:15.191Z,48.57
2022-10-19T12:56:21.922Z,49.02
2022-10-19T12:57:27.565Z,49.29
2022-10-19T12:58:51.197Z,48.95
2022-10-19T13:00:00.265Z,49.20
2022-10-19T13:01:03.532Z,49.73
2022-10-19T13:02:06.252Z,49.67
2022-10-19T13:03:16.053Z,49.73
2022-10-19T13:04:25.077Z,49.16
2022-10-19T13:05:28.088Z,49.22
2022-10-19T13:06:32.048Z,50.13
2022-10-19T13:07:34.664Z,49.68
2022-10-19T13:08:42.968Z,49.65
2022-10-19T13:09:46.275Z,49.53
2022-10-19T13:11:03.768Z,49.52
2022-10-19T13:12:21.571Z,49.61
2022-10-19T13:14:02.076Z,49.36
2022-10-19T13:15:04.359Z,49.32
2022-10-19T13:16:29.097Z,49.40
2022-10-19T13:17:41.208Z,49.15
2022-10-19T13:19:12.135Z,49.71
2022-10-19T13:20:13.896Z,49.48
2022-10-19T13:22:02.102Z,49.62
2022-10-19T13:23:07.439Z,49.62
2022-10-19T13:24:23.984Z,49.58
2022-10-19T13:25:35.366Z,49.60
2022-10-19T13:26:38.514Z,49.87
2022-10-19T13:27:40.424Z,50.34
2022-10-19T13:28:52.322Z,49.90
2022-10-19T13:29:54.094Z,49.62
2022-10-19T13:31:04.834Z,49.95
2022-10-19T13:32:38.198Z,50.48
2022-10-19T13:33:46.670Z,50.09
2022-10-19T13:34:48.264Z,50.01
2022-10-19T13:35:49.822Z,49.81
2022-10-19T13:37:00.772Z,50.01
2022-10-19T13:38:17.213Z,49.65
2022-10-19T13:39:25.654Z,50.48
2022-10-19T13:40:27.229Z,50.37
2022-10-19T13:41:47.734Z,50.51
2022-10-19T13:42:57.931Z,50.56
2022-10-19T13:44:02.284Z,50.74
2022-10-19T13:45:04.809Z,50.29
2022-10-19T13:46:10.254Z,50.82
2022-10-19T13:47:21.569Z,50.61
2022-10-19T13:48:28.063Z,51.42
2022-10-19T13:49:38.621Z,52.05
2022-10-19T13:50:46.514Z,51.39
2022-10-19T13:51:54.234Z,51.78
2022-10-19T13:53:02.287Z,51.08
2022-10-19T13:54:34.918Z,50.97
2022-10-19T13:56:00.349Z,49.48
2022-10-19T13:57:11.579Z,48.96
2022-10-19T13:58:37.327Z,49.16
2022-10-19T14:00:12.991Z,49.11
2022-10-19T14:01:21.301Z,48.96
2022-10-19T14:02:50.729Z,48.43
2022-10-19T14:03:55.969Z,48.66
2022-10-19T14:05:18.981Z,48.50
2022-10-19T14:06:44.754Z,49.14
2022-10-19T14:07:49.553Z,48.93
2022-10-19T14:09:09.476Z,48.73
2022-10-19T14:10:17.880Z,49.07
2022-10-19T14:11:40.596Z,48.70
2022-10-19T14:12:42.981Z,48.97
2022-10-19T14:13:44.639Z,49.40
2022-10-19T14:14:46.202Z,49.51
2022-10-19T14:15:52.759Z,49.49
2022-10-19T14:16:58.442Z,49.54
2022-10-19T14:18:05.799Z,50.07
2022-10-19T14:19:12.641Z,50.16
2022-10-19T14:20:37.075Z,50.51
2022-10-19T14:21:38.650Z,50.77
2022-10-19T14:22:40.849Z,51.18
2022-10-19T14:23:42.860Z,51.46
2022-10-19T14:24:44.558Z,51.51
2022-10-19T14:25:56.585Z,51.47
2022-10-19T14:27:07.240Z,51.72
2022-10-19T14:28:08.842Z,52.56
2022-10-19T14:29:12.070Z,52.39
2022-10-19T14:30:22.777Z,53.13
2022-10-19T14:31:26.422Z,52.57
2022-10-19T14:32:28.880Z,53.12
2022-10-19T14:33:32.971Z,53.40
2022-10-19T14:34:34.533Z,53.44
2022-10-19T14:35:37.850Z,53.53
2022-10-19T14:36:43.380Z,53.18
2022-10-19T14:37:44.968Z,53.36
2022-10-19T14:38:46.868Z,53.25
2022-10-19T14:40:08.855Z,53.02
2022-10-19T14:41:28.868Z,53.11
2022-10-19T14:42:43.965Z,53.44
2022-10-19T14:43:45.751Z,53.51
2022-10-19T14:44:47.429Z,53.84
2022-10-19T14:46:07.451Z,54.12
2022-10-19T14:47:19.356Z,54.18
2022-10-19T14:48:20.916Z,54.56
2022-10-19T14:49:22.475Z,54.15
2022-10-19T14:50:33.463Z,53.95
2022-10-19T14:51:43.696Z,54.16
2022-10-19T14:52:45.263Z,54.31
2022-10-19T14:53:50.704Z,53.84
2022-10-19T14:54:52.553Z,53.77
2022-10-19T14:55:55.178Z,53.67
2022-10-19T14:57:01.949Z,54.00
2022-10-19T14:58:03.757Z,53.90
2022-10-19T14:59:22.884Z,53.89
2022-10-19T15:01:31.127Z,54.23
2022-10-19T15:02:34.474Z,54.70
2022-10-19T15:03:38.129Z,54.41
2022-10-19T15:04:42.998Z,54.51
2022-10-19T15:05:48.563Z,54.92
2022-10-19T15:06:50.250Z,54.91
2022-10-19T15:07:51.896Z,55.29
2022-10-19T15:09:36.768Z,55.43
2022-10-19T15:10:43.445Z,55.58
2022-10-19T15:11:46.797Z,55.57
2022-10-19T15:12:48.607Z,55.92
2022-10-19T15:13:53.372Z,55.81
2022-10-19T15:14:55.053Z,56.13
2022-10-19T15:15:56.710Z,56.00
2022-10-19T15:16:59.652Z,56.25
2022-10-19T15:18:01.280Z,56.33
2022-10-19T15:19:04.930Z,56.28
2022-10-19T15:20:22.459Z,56.49
2022-10-19T15:21:24.024Z,56.40
2022-10-19T15:22:31.942Z,56.59
2022-10-19T15:23:40.074Z,56.75
2022-10-19T15:25:00.871Z,57.00
2022-10-19T15:26:07.226Z,57.38
2022-10-19T15:27:22.125Z,57.31
2022-10-19T15:28:41.448Z,57.66
2022-10-19T15:29:56.378Z,57.94
2022-10-19T15:31:01.974Z,57.88
2022-10-19T15:32:14.313Z,57.83
2022-10-19T15:33:15.939Z,58.05
2022-10-19T15:34:28.759Z,58.26
2022-10-19T15:35:32.139Z,58.22
2022-10-19T15:36:33.726Z,58.44
2022-10-19T15:37:35.299Z,58.25
2022-10-19T15:38:36.972Z,57.58
2022-10-19T15:39:42.163Z,57.77
2022-10-19T15:40:45.587Z,57.95
2022-10-19T15:41:47.228Z,58.24
2022-10-19T15:42:49.137Z,58.30
2022-10-19T15:43:52.205Z,58.42
2022-10-19T15:44:53.800Z,58.49
2022-10-19T15:46:14.008Z,58.53
2022-10-19T15:47:15.617Z,58.47
2022-10-19T15:48:26.266Z,58.48
2022-10-19T15:49:43.228Z,58.75
2022-10-19T15:50:48.446Z,58.73
2022-10-19T15:51:50.237Z,58.77
2022-10-19T15:52:51.811Z,58.82
2022-10-19T15:53:55.966Z,58.80
2022-10-19T15:54:58.576Z,58.92
2022-10-19T15:56:00.349Z,58.57
2022-10-19T15:57:01.946Z,58.59
2022-10-19T15:58:03.503Z,58.40
2022-10-19T15:59:13.186Z,57.91
2022-10-19T16:00:16.603Z,57.79
2022-10-19T16:01:20.046Z,57.45
2022-10-19T16:02:22.085Z,57.22
2022-10-19T16:03:23.696Z,57.04
2022-10-19T16:04:25.253Z,57.35
2022-10-19T16:05:26.930Z,56.86
2022-10-19T16:06:29.810Z,56.92
2022-10-19T16:07:32.750Z,56.86
2022-10-19T16:08:34.603Z,56.85
2022-10-19T16:09:36.266Z,56.94
2022-10-19T16:10:37.919Z,57.14
2022-10-19T16:11:39.481Z,56.52
2022-10-19T16:12:41.106Z,56.55
2022-10-19T16:13:42.759Z,56.39
2022-10-19T16:14:44.354Z,56.57
2022-10-19T16:15:50.008Z,56.53
2022-10-19T16:17:01.071Z,56.45
2022-10-19T16:18:02.646Z,56.21
2022-10-19T16:19:04.261Z,56.37
2022-10-19T16:20:06.559Z,56.32
2022-10-19T16:21:08.156Z,56.33
2022-10-19T16:22:09.808Z,56.40
2022-10-19T16:23:12.911Z,56.41
2022-10-19T16:24:14.877Z,56.26
2022-10-19T16:25:16.595Z,56.29
2022-10-19T16:26:18.739Z,56.42
2022-10-19T16:27:20.358Z,56.48
2022-10-19T16:28:22.192Z,56.65
2022-10-19T16:29:28.162Z,56.40
2022-10-19T16:30:30.648Z,56.67
2022-10-19T16:31:32.594Z,56.57
2022-10-19T16:32:34.339Z,56.71
2022-10-19T16:33:35.949Z,56.61
2022-10-19T16:34:38.088Z,56.82
2022-10-19T16:35:39.661Z,56.86
2022-10-19T16:36:41.286Z,56.98
2022-10-19T16:37:43.025Z,57.31
2022-10-19T16:38:44.637Z,57.25
2022-10-19T16:39:46.239Z,57.59
2022-10-19T16:40:47.855Z,57.64
2022-10-19T16:41:49.507Z,57.65
2022-10-19T16:42:51.348Z,57.87
2022-10-19T16:43:56.169Z,57.87
2022-10-19T16:44:57.777Z,57.95
2022-10-19T16:45:59.403Z,57.99
2022-10-19T16:47:01.266Z,58.20
2022-10-19T16:48:03.022Z,58.13
2022-10-19T16:49:04.661Z,58.47
2022-10-19T16:50:06.468Z,58.43
2022-10-19T16:51:08.352Z,58.50
2022-10-19T16:52:13.841Z,58.44
2022-10-19T16:53:15.543Z,58.55
2022-10-19T16:54:17.748Z,58.54
2022-10-19T16:55:19.416Z,58.70
2022-10-19T16:56:20.956Z,58.71
2022-10-19T16:57:22.554Z,58.80
2022-10-19T16:58:24.222Z,58.95
2022-10-19T16:59:27.000Z,58.80
2022-10-19T17:00:29.068Z,58.79
2022-10-19T17:01:31.136Z,58.87
2022-10-19T17:02:32.982Z,58.90
2022-10-19T17:03:34.926Z,58.84
2022-10-19T17:04:36.914Z,58.78
2022-10-19T17:05:39.440Z,59.13
2022-10-19T17:06:41.057Z,59.01
2022-10-19T17:07:42.680Z,59.26
2022-10-19T17:09:14.771Z,59.24
2022-10-19T17:10:06.386Z,59.46
2022-10-19T17:11:16.112Z,59.45
2022-10-19T17:12:17.786Z,59.48
2022-10-19T17:13:19.948Z,59.27
2022-10-19T17:14:22.101Z,59.42
2022-10-19T17:15:42.118Z,59.48
2022-10-19T17:16:44.473Z,59.37
2022-10-19T17:17:46.185Z,59.02
2022-10-19T17:18:48.328Z,58.88
2022-10-19T17:19:50.104Z,59.07
2022-10-19T17:20:52.190Z,59.09
2022-10-19T17:21:58.033Z,59.02
2022-10-19T17:23:00.088Z,59.01
2022-10-19T17:24:02.918Z,59.32
2022-10-19T17:25:05.269Z,59.33
2022-10-19T17:26:07.310Z,59.38
2022-10-19T17:27:09.314Z,59.44
2022-10-19T17:28:11.316Z,59.61
2022-10-19T17:29:13.583Z,59.69
2022-10-19T17:30:15.640Z,59.48
2022-10-19T17:31:18.146Z,59.62
2022-10-19T17:32:20.282Z,59.20
2022-10-19T17:33:22.896Z,59.19
2022-10-19T17:34:24.992Z,59.04
2022-10-19T17:35:27.740Z,59.15
2022-10-19T17:36:31.637Z,59.07
2022-10-19T17:37:33.509Z,59.06
2022-10-19T17:38:36.177Z,59.14
2022-10-19T17:39:38.295Z,59.07
2022-10-19T17:40:40.443Z,59.18
2022-10-19T17:41:42.550Z,59.34
2022-10-19T17:42:44.685Z,59.53
2022-10-19T17:43:47.095Z,59.66
2022-10-19T17:44:48.627Z,59.63
2022-10-19T17:45:58.051Z,59.64
2022-10-19T17:47:00.885Z,59.84
2022-10-19T17:48:02.943Z,59.57
2022-10-19T17:49:05.369Z,59.76
2022-10-19T17:50:07.886Z,59.66
2022-10-19T17:51:21.013Z,59.85
2022-10-19T17:52:22.711Z,59.92
2022-10-19T17:53:24.887Z,60.10
2022-10-19T17:54:27.131Z,60.19
2022-10-19T17:55:29.411Z,60.26
2022-10-19T17:56:31.582Z,60.72
2022-10-19T17:57:38.195Z,60.83
2022-10-19T17:58:41.453Z,61.17
2022-10-19T17:59:52.395Z,61.28
2022-10-19T18:00:56.295Z,61.15
2022-10-19T18:01:58.418Z,61.57
2022-10-19T18:03:00.429Z,61.46
2022-10-19T18:04:02.708Z,61.64
2022-10-19T18:05:05.775Z,61.50
2022-10-19T18:06:12.986Z,61.58
2022-10-19T18:07:15.129Z,61.64
2022-10-19T18:08:17.524Z,61.73
2022-10-19T18:09:19.693Z,61.94
2022-10-19T18:10:21.796Z,61.87
2022-10-19T18:11:24.817Z,61.82
2022-10-19T18:12:27.251Z,62.00
2022-10-19T18:13:29.634Z,62.08
2022-10-19T18:14:31.755Z,62.23
2022-10-19T18:15:33.837Z,62.01
2022-10-19T18:16:38.057Z,62.02
2022-10-19T18:17:39.982Z,62.06
2022-10-19T18:18:43.214Z,62.29
2022-10-19T18:19:45.388Z,62.38
2022-10-19T18:20:47.709Z,62.54
2022-10-19T18:21:49.761Z,62.42
2022-10-19T18:22:51.929Z,62.90
2022-10-19T18:23:53.782Z,62.93
2022-10-19T18:24:56.274Z,63.16
2022-10-19T18:26:06.048Z,63.06
2022-10-19T18:27:08.020Z,63.17
2022-10-19T18:28:09.705Z,62.94
2022-10-19T18:29:15.347Z,62.88
2022-10-19T18:30:17.429Z,62.93
2022-10-19T18:31:20.778Z,62.99
2022-10-19T18:32:22.652Z,62.85
2022-10-19T18:33:29.036Z,62.74
2022-10-19T18:34:33.383Z,62.94
2022-10-19T18:35:36.301Z,62.65
2022-10-19T18:36:41.438Z,62.80
2022-10-19T18:37:43.463Z,62.99
2022-10-19T18:38:45.556Z,63.09
2022-10-19T18:39:47.678Z,62.95
2022-10-19T18:40:49.786Z,63.11
2022-10-19T18:41:54.691Z,63.13
2022-10-19T18:42:57.151Z,63.20
2022-10-19T18:44:04.840Z,63.15
2022-10-19T18:45:07.340Z,63.34
2022-10-19T18:46:09.344Z,63.40
2022-10-19T18:47:13.448Z,63.43
2022-10-19T18:48:16.022Z,63.52
2022-10-19T18:49:18.259Z,63.35
2022-10-19T18:50:20.857Z,63.34
2022-10-19T18:51:26.366Z,63.53
2022-10-19T18:52:28.045Z,63.73
2022-10-19T18:53:31.339Z,63.71
2022-10-19T18:54:33.415Z,63.74
2022-10-19T18:55:35.496Z,63.85
2022-10-19T18:56:46.780Z,63.80
2022-10-19T18:57:48.959Z,63.67
2022-10-19T18:58:51.265Z,63.73
2022-10-19T18:59:53.328Z,63.87
2022-10-19T19:01:16.500Z,64.02
2022-10-19T19:02:22.665Z,64.09
2022-10-19T19:03:30.580Z,64.03
2022-10-19T19:04:32.275Z,63.81
2022-10-19T19:05:34.267Z,63.80
2022-10-19T19:06:36.818Z,64.15
2022-10-19T19:07:39.118Z,63.98
2022-10-19T19:08:41.409Z,64.05
2022-10-19T19:09:44.249Z,63.92
2022-10-19T19:10:46.418Z,63.84
2022-10-19T19:11:48.660Z,63.90
2022-10-19T19:12:51.019Z,64.23
2022-10-19T19:13:55.137Z,64.61
2022-10-19T19:14:57.327Z,64.63
2022-10-19T19:16:00.189Z,64.85
2022-10-19T19:17:02.347Z,64.98
2022-10-19T19:18:05.019Z,65.38
2022-10-19T19:19:07.729Z,65.64
2022-10-19T19:20:10.095Z,66.05
2022-10-19T19:21:16.860Z,65.94
2022-10-19T19:22:18.783Z,66.02
2022-10-19T19:23:20.992Z,65.87
2022-10-19T19:24:22.916Z,65.75
2022-10-19T19:25:25.395Z,65.84
2022-10-19T19:26:29.420Z,66.17
2022-10-19T19:27:32.030Z,66.35
2022-10-19T19:28:36.647Z,66.35
2022-10-19T19:29:41.359Z,66.33
2022-10-19T19:30:44.663Z,66.45
2022-10-19T19:31:47.682Z,66.74
2022-10-19T19:32:49.751Z,66.86
2022-10-19T19:33:51.934Z,66.70
2022-10-19T19:34:54.877Z,66.66
2022-10-19T19:35:57.178Z,66.40
2022-10-19T19:37:00.082Z,66.14
2022-10-19T19:38:02.260Z,66.02
2022-10-19T19:39:04.633Z,66.09
2022-10-19T19:40:07.315Z,66.13
2022-10-19T19:41:11.088Z,66.15
2022-10-19T19:42:13.496Z,66.43
2022-10-19T19:43:16.090Z,66.37
2022-10-19T19:44:18.247Z,66.59
2022-10-19T19:45:20.349Z,66.77
2022-10-19T19:46:22.004Z,66.66
2022-10-19T19:47:24.372Z,66.77
2022-10-19T19:48:26.517Z,66.70
2022-10-19T19:49:28.621Z,66.69
2022-10-19T19:50:30.915Z,66.63
2022-10-19T19:51:34.715Z,66.58
2022-10-19T19:52:40.454Z,66.49
2022-10-19T19:53:42.922Z,66.26
2022-10-19T19:54:44.953Z,66.46
2022-10-19T19:55:47.665Z,66.62
2022-10-19T19:56:53.412Z,66.66
2022-10-19T19:57:55.630Z,67.02
2022-10-19T19:58:58.217Z,67.18
2022-10-19T20:00:00.171Z,67.33
2022-10-19T20:01:12.149Z,67.52
2022-10-19T20:02:16.898Z,67.39
2022-10-19T20:03:18.908Z,67.27
2022-10-19T20:04:20.916Z,67.20
2022-10-19T20:05:22.812Z,67.40
2022-10-19T20:06:26.165Z,67.53
2022-10-19T20:07:28.416Z,67.40
2022-10-19T20:08:30.667Z,67.71
2022-10-19T20:09:32.409Z,68.01
2022-10-19T20:10:41.726Z,67.98
2022-10-19T20:11:44.314Z,68.06
2022-10-19T20:12:46.730Z,67.95
2022-10-19T20:13:48.765Z,67.77
2022-10-19T20:14:50.677Z,67.67
2022-10-19T20:15:54.239Z,67.71
2022-10-19T20:16:56.334Z,67.91
2022-10-19T20:17:58.457Z,67.67
2022-10-19T20:19:05.056Z,67.66
2022-10-19T20:20:07.832Z,67.62
2022-10-19T20:21:11.032Z,67.70
2022-10-19T20:22:13.583Z,67.80
2022-10-19T20:23:15.562Z,67.59
2022-10-19T20:24:17.786Z,67.59
2022-10-19T20:25:19.945Z,67.51
2022-10-19T20:26:22.894Z,67.48